Accueil
METAR-TAF:

METAR-TAF

Aéroports :

Aéroport international de Bergame-Orio al Serio (Le Caravage)

Bergame, Italie

latitude: 45-40N, longitude: 009-42E, altitude: 238 m

Observation

Le bulletin a été fait il y a 23 minutes, à 18:50 UTC
Vent 5 kt de nord/nord-est
Température 15°C
Humidité 88%
Pression 1023 hPa
Visibilité: 5000 m
brume

METAR: LIME 201850Z 02005KT 5000 BR NSC 15/13 Q1023 NOSIG

Heure: 21:13 (19:13 UTC)

Prévision

Le bulletin a été fait il y a 2 heures et 13 minutes, à 17:00 UTC
Prévision valable du 20 à 18 UTC au 21 à 18 UTC
Vent 5 kt de direction variable
Visibilité: 6000 m

TAF: LIME 201700Z 2018/2118 VRB05KT 6000 NSC

Observations et prévisions météorologiques de plus de 4000 aéroports (messages METAR et TAF).

Les stations disponibles sont représentées par des disques jaunes et rouges sur la carte.

Passer la souris dessus pour voir le nom de la station.

Cliquer dessus pour voir les observations et prévisions météorologiques.

Pour changer de carte: cliquez sur les boutons verts avec une croix noire pour zoomer, sur le bouton vert avec un tiret pour effectuer un zoom arrière, ou sur les flèches vertes pour les cartes adjacentes.


METAR-TAF: